Meath Environmental Platform

Observations for Trim Market St

Time AQI Temp °C Hum % Pres Pa CO μg/m³ H₂S μg/m³ NO μg/m³ NO₂ μg/m³ O₃ μg/m³ SO₂ μg/m³ PM1 μg/m³ PM2.5 μg/m³ PM10 μg/m³
Thursday 16 July 2026
06:23 1 16.1 78 22,160 0.27 0 0.83 3.96 15.6 0 7.84 9.8 14.49
06:22 1 16.1 78 21,892 0.28 0 0 4.06 13.65 0 8.55 10.75 15.07
06:21 1 16.1 78 21,822 0.27 0 0 4.05 13.96 0 8.55 11.7 16.22
06:20 1 16 78 21,713 0.27 0 1.2 5.37 17.55 0 7.84 12.64 17.96
06:19 1 16 78 21,635 0.25 0 0 8.37 5.41 0 7.13 10.27 14.48
06:18 1 16 78 21,701 0.29 0 3.55 7.46 9.49 0 7.84 12.16 17.95
06:17 1 15.9 78 21,567 0.25 0 2.09 2.8 13.17 0 9.98 13.12 17.96
06:16 1 15.9 78 21,374 0.26 0 0 9.59 14.37 0 8.55 12.16 16.79
06:15 1 15.9 78 21,163 0.24 0 0 2.69 22.28 0 7.84 9.32 13.9
06:13 1 15.8 78 20,603 0.25 0 0 5.51 8.55 0 7.84 10.26 15.62
06:12 1 15.8 78 20,066 0.25 0 0 4.29 12.39 0 7.84 9.78 16.19
06:11 1 15.8 78 19,314 0.28 0 0 3.39 16.16 0 9.98 12.15 17.93
06:10 1 15.8 78 18,720 0.26 0 0 4.29 12.28 0 8.55 11.2 16.19
06:09 1 15.7 78 18,271 0.25 0 0.11 3.11 14.26 0 8.55 10.72 15.03
06:07 1 15.7 78 17,373 0.25 0 0 4.11 14.65 0 7.13 10.24 15.61
06:06 1 15.7 78 17,055 0.24 0 0 5.1 15.55 0 7.13 9.76 13.87
06:05 1 15.7 78 16,762 0.25 0 0 3.6 14.76 0 8.55 11.66 17.33
06:04 1 15.7 78 16,562 0.25 0 0 3.9 14.9 0 6.41 9.76 15.02
06:01 1 15.7 78 16,126 0.23 0 1.58 4.9 10.78 0 8.55 10.24 14.45
05:55 1 15.6 78 17,278 0.22 0 0 4.06 15.42 0 7.84 11.68 16.78